createdAt,value
2022-10-05T00:02:18.466Z,1010.79
2022-10-05T00:05:18.495Z,1010.74
2022-10-05T00:08:18.465Z,1010.69
2022-10-05T00:11:18.463Z,1010.69
2022-10-05T00:14:18.460Z,1010.55
2022-10-05T00:17:18.460Z,1010.46
2022-10-05T00:20:18.456Z,1010.43
2022-10-05T00:23:18.469Z,1010.32
2022-10-05T00:26:18.465Z,1010.29
2022-10-05T00:29:18.461Z,1010.25
2022-10-05T00:32:18.466Z,1010.29
2022-10-05T00:35:18.466Z,1010.3
2022-10-05T00:38:18.465Z,1010.34
2022-10-05T00:41:18.462Z,1010.37
2022-10-05T00:44:18.464Z,1010.37
2022-10-05T00:47:18.464Z,1010.3
2022-10-05T00:50:18.466Z,1010.21
2022-10-05T00:53:18.465Z,1010.1
2022-10-05T00:56:18.466Z,1010.07
2022-10-05T00:59:18.472Z,1010.07
2022-10-05T01:02:18.504Z,1010.09
2022-10-05T01:05:18.471Z,1010.13
2022-10-05T01:08:18.466Z,1010.18
2022-10-05T01:11:18.462Z,1010.12
2022-10-05T01:14:18.468Z,1010.08
2022-10-05T01:17:18.469Z,1010.12
2022-10-05T01:20:18.469Z,1010.11
2022-10-05T01:23:18.466Z,1010.08
2022-10-05T01:26:18.478Z,1010.13
2022-10-05T01:29:18.475Z,1010.12
2022-10-05T01:32:18.465Z,1010.18
2022-10-05T01:35:18.513Z,1010.16
2022-10-05T01:38:18.469Z,1010.15
2022-10-05T01:41:18.477Z,1010.17
2022-10-05T01:44:18.475Z,1010.16
2022-10-05T01:47:18.472Z,1010.22
2022-10-05T01:50:18.469Z,1010.16
2022-10-05T01:53:18.473Z,1010.15
2022-10-05T01:56:18.499Z,1010.11
2022-10-05T01:59:18.471Z,1010.04
2022-10-05T02:02:18.625Z,1009.98
2022-10-05T02:05:18.506Z,1009.95
2022-10-05T02:08:18.485Z,1009.86
2022-10-05T02:11:18.474Z,1009.79
2022-10-05T02:14:18.483Z,1009.7
2022-10-05T02:17:18.479Z,1009.68
2022-10-05T02:20:18.477Z,1009.72
2022-10-05T02:23:18.480Z,1009.73
2022-10-05T02:26:18.478Z,1009.77
2022-10-05T02:29:18.476Z,1009.7
2022-10-05T02:32:18.476Z,1009.68
2022-10-05T02:35:18.474Z,1009.66
2022-10-05T02:38:18.479Z,1009.57
2022-10-05T02:41:18.476Z,1009.48
2022-10-05T02:44:18.487Z,1009.52
2022-10-05T02:47:18.481Z,1009.41
2022-10-05T02:50:18.474Z,1009.34
2022-10-05T02:53:18.484Z,1009.38
2022-10-05T02:56:18.484Z,1009.46
2022-10-05T02:59:18.489Z,1009.48
2022-10-05T03:02:18.551Z,1009.49
2022-10-05T03:05:18.485Z,1009.54
2022-10-05T03:08:18.485Z,1009.55
2022-10-05T03:11:18.479Z,1009.58
2022-10-05T03:14:18.495Z,1009.66
2022-10-05T03:17:18.479Z,1009.69
2022-10-05T03:20:18.481Z,1009.67
2022-10-05T03:23:18.483Z,1009.65
2022-10-05T03:26:18.483Z,1009.65
2022-10-05T03:29:18.479Z,1009.67
2022-10-05T03:32:18.484Z,1009.71
2022-10-05T03:35:18.487Z,1009.71
2022-10-05T03:38:18.487Z,1009.73
2022-10-05T03:41:18.483Z,1009.77
2022-10-05T03:44:18.563Z,1009.78
2022-10-05T03:47:18.490Z,1009.81
2022-10-05T03:50:18.486Z,1009.83
2022-10-05T03:53:18.490Z,1009.89
2022-10-05T03:56:18.495Z,1009.9
2022-10-05T03:59:18.493Z,1009.89
2022-10-05T04:02:18.537Z,1009.9
2022-10-05T04:05:18.529Z,1009.84
2022-10-05T04:08:18.493Z,1009.77
2022-10-05T04:11:18.488Z,1009.69
2022-10-05T04:14:18.492Z,1009.68
2022-10-05T04:17:18.531Z,1009.69
2022-10-05T04:20:18.496Z,1009.66
2022-10-05T04:23:18.493Z,1009.67
2022-10-05T04:26:18.498Z,1009.61
2022-10-05T04:29:18.508Z,1009.66
2022-10-05T04:32:18.495Z,1009.66
2022-10-05T04:35:18.515Z,1009.7
2022-10-05T04:38:18.496Z,1009.77
2022-10-05T04:41:18.499Z,1009.81
2022-10-05T04:44:18.501Z,1009.83
2022-10-05T04:47:18.501Z,1009.84
2022-10-05T04:50:18.512Z,1009.83
2022-10-05T04:53:18.503Z,1009.86
2022-10-05T04:56:18.497Z,1009.92
2022-10-05T04:59:18.504Z,1009.92
2022-10-05T05:02:18.506Z,1009.91
2022-10-05T05:05:18.506Z,1009.94
2022-10-05T05:08:18.507Z,1009.95
2022-10-05T05:11:22.368Z,1009.91
2022-10-05T05:14:18.509Z,1009.92
2022-10-05T05:17:18.509Z,1009.93
2022-10-05T05:20:18.519Z,1009.99
2022-10-05T05:23:18.504Z,1009.94
2022-10-05T05:26:18.503Z,1010.01
2022-10-05T05:29:18.522Z,1010.05
2022-10-05T05:32:18.506Z,1010.1
2022-10-05T05:35:18.517Z,1010.13
2022-10-05T05:38:18.510Z,1010.13
2022-10-05T05:41:18.518Z,1010.15
2022-10-05T05:44:18.513Z,1010.21
2022-10-05T05:47:18.548Z,1010.21
2022-10-05T05:50:18.516Z,1010.26
2022-10-05T05:53:18.517Z,1010.26
2022-10-05T05:56:18.517Z,1010.28
2022-10-05T05:59:18.517Z,1010.24
2022-10-05T06:02:18.568Z,1010.27
2022-10-05T06:05:18.516Z,1010.23
2022-10-05T06:08:18.513Z,1010.19
2022-10-05T06:11:18.515Z,1010.17
2022-10-05T06:14:18.522Z,1010.14
2022-10-05T06:17:18.524Z,1010.24
2022-10-05T06:20:18.515Z,1010.22
2022-10-05T06:23:18.519Z,1010.24
2022-10-05T06:26:18.520Z,1010.29
2022-10-05T06:29:18.519Z,1010.3
2022-10-05T06:32:18.517Z,1010.27
2022-10-05T06:35:18.524Z,1010.23
2022-10-05T06:38:18.525Z,1010.2
2022-10-05T06:41:18.522Z,1010.23
2022-10-05T06:44:18.526Z,1010.19
2022-10-05T06:47:18.523Z,1010.21
2022-10-05T06:50:18.521Z,1010.21
2022-10-05T06:53:18.525Z,1010.27
2022-10-05T06:56:18.528Z,1010.27
2022-10-05T06:59:18.525Z,1010.36
2022-10-05T07:02:18.559Z,1010.34
2022-10-05T07:05:18.555Z,1010.34
2022-10-05T07:08:18.544Z,1010.3
2022-10-05T07:11:18.538Z,1010.33
2022-10-05T07:14:18.543Z,1010.36
2022-10-05T07:17:18.571Z,1010.44
2022-10-05T07:20:18.544Z,1010.41
2022-10-05T07:23:18.542Z,1010.45
2022-10-05T07:26:18.550Z,1010.42
2022-10-05T07:29:18.547Z,1010.45
2022-10-05T07:32:18.546Z,1010.44
2022-10-05T07:35:18.546Z,1010.44
2022-10-05T07:38:18.544Z,1010.4
2022-10-05T07:41:18.548Z,1010.38
2022-10-05T07:44:18.548Z,1010.37
2022-10-05T07:47:18.554Z,1010.39
2022-10-05T07:50:18.599Z,1010.35
2022-10-05T07:53:18.550Z,1010.34
2022-10-05T07:56:18.561Z,1010.32
2022-10-05T07:59:18.551Z,1010.37
2022-10-05T08:02:18.695Z,1010.39
2022-10-05T08:05:18.544Z,1010.41
2022-10-05T08:08:19.707Z,1010.39
2022-10-05T08:11:18.543Z,1010.4
2022-10-05T08:14:18.552Z,1010.4
2022-10-05T08:17:20.679Z,1010.37
2022-10-05T08:20:18.550Z,1010.36
2022-10-05T08:23:18.558Z,1010.33
2022-10-05T08:26:18.561Z,1010.32
2022-10-05T08:29:18.550Z,1010.34
2022-10-05T08:32:18.547Z,1010.27
2022-10-05T08:35:18.547Z,1010.29
2022-10-05T08:38:18.557Z,1010.28
2022-10-05T08:41:18.561Z,1010.25
2022-10-05T08:44:18.554Z,1010.28
2022-10-05T08:47:18.563Z,1010.26
2022-10-05T08:50:18.559Z,1010.26
2022-10-05T08:53:18.561Z,1010.23
2022-10-05T08:56:20.439Z,1010.22
2022-10-05T08:59:18.556Z,1010.15
2022-10-05T09:02:18.605Z,1010.16
2022-10-05T09:05:18.552Z,1010.19
2022-10-05T09:08:18.559Z,1010.17
2022-10-05T09:11:18.571Z,1010.17
2022-10-05T09:14:18.559Z,1010.16
2022-10-05T09:17:18.566Z,1010.2
2022-10-05T09:20:18.692Z,1010.21
2022-10-05T09:23:18.557Z,1010.23
2022-10-05T09:26:18.560Z,1010.23
2022-10-05T09:29:18.587Z,1010.18
2022-10-05T09:32:18.571Z,1010.18
2022-10-05T09:35:18.575Z,1010.15
2022-10-05T09:38:18.561Z,1010.18
2022-10-05T09:41:18.553Z,1010.18
2022-10-05T09:44:18.568Z,1010.16
2022-10-05T09:47:18.565Z,1010.12
2022-10-05T09:50:18.584Z,1010.08
2022-10-05T09:53:18.566Z,1010.02
2022-10-05T09:56:18.658Z,1009.99
2022-10-05T09:59:18.562Z,1010.02
2022-10-05T10:02:18.613Z,1009.96
2022-10-05T10:05:18.567Z,1009.89
2022-10-05T10:08:18.565Z,1009.85
2022-10-05T10:11:18.569Z,1009.83
2022-10-05T10:14:18.592Z,1009.78
2022-10-05T10:17:18.573Z,1009.8
2022-10-05T10:20:18.605Z,1009.74
2022-10-05T10:23:18.569Z,1009.72
2022-10-05T10:26:18.568Z,1009.78
2022-10-05T10:29:18.592Z,1009.76
2022-10-05T10:32:18.571Z,1009.73
2022-10-05T10:35:18.636Z,1009.75
2022-10-05T10:38:18.572Z,1009.8
2022-10-05T10:41:18.572Z,1009.8
2022-10-05T10:44:18.575Z,1009.77
2022-10-05T10:47:18.574Z,1009.77
2022-10-05T10:50:18.573Z,1009.69
2022-10-05T10:53:18.578Z,1009.71
2022-10-05T10:56:18.573Z,1009.65
2022-10-05T10:59:18.571Z,1009.63
2022-10-05T11:02:18.664Z,1009.55
2022-10-05T11:05:18.577Z,1009.51
2022-10-05T11:08:18.577Z,1009.48
2022-10-05T11:11:18.604Z,1009.44
2022-10-05T11:14:18.576Z,1009.37
2022-10-05T11:17:18.579Z,1009.31
2022-10-05T11:20:18.574Z,1009.31
2022-10-05T11:23:18.590Z,1009.34
2022-10-05T11:26:18.596Z,1009.31
2022-10-05T11:29:18.593Z,1009.28
2022-10-05T11:32:18.596Z,1009.22
2022-10-05T11:35:18.591Z,1009.24
2022-10-05T11:38:18.610Z,1009.15
2022-10-05T11:41:18.597Z,1009.1
2022-10-05T11:44:18.609Z,1009.07
2022-10-05T11:47:18.610Z,1009.09
2022-10-05T11:50:18.605Z,1009.05
2022-10-05T11:53:18.596Z,1009.01
2022-10-05T11:56:18.647Z,1009.02
2022-10-05T11:59:18.601Z,1009.03
2022-10-05T12:02:18.603Z,1008.99
2022-10-05T12:05:18.608Z,1008.94
2022-10-05T12:08:18.609Z,1008.94
2022-10-05T12:11:18.627Z,1008.88
2022-10-05T12:14:18.604Z,1008.88
2022-10-05T12:17:18.626Z,1008.85
2022-10-05T12:20:18.606Z,1008.79
2022-10-05T12:23:18.602Z,1008.75
2022-10-05T12:26:18.605Z,1008.74
2022-10-05T12:29:18.608Z,1008.73
2022-10-05T12:32:18.604Z,1008.72
2022-10-05T12:35:29.894Z,1008.7
2022-10-05T12:38:18.614Z,1008.66
2022-10-05T12:41:18.611Z,1008.64
2022-10-05T12:44:18.608Z,1008.58
2022-10-05T12:47:18.615Z,1008.58
2022-10-05T12:50:18.616Z,1008.58
2022-10-05T12:53:18.609Z,1008.53
2022-10-05T12:56:18.616Z,1008.59
2022-10-05T12:59:18.615Z,1008.54
2022-10-05T13:02:18.657Z,1008.48
2022-10-05T13:05:18.621Z,1008.43
2022-10-05T13:08:18.637Z,1008.44
2022-10-05T13:11:18.712Z,1008.45
2022-10-05T13:14:18.615Z,1008.45
2022-10-05T13:17:18.612Z,1008.37
2022-10-05T13:20:18.618Z,1008.34
2022-10-05T13:23:18.624Z,1008.27
2022-10-05T13:26:18.630Z,1008.29
2022-10-05T13:29:18.627Z,1008.27
2022-10-05T13:32:18.621Z,1008.3
2022-10-05T13:35:18.622Z,1008.25
2022-10-05T13:38:18.623Z,1008.26
2022-10-05T13:41:18.624Z,1008.26
2022-10-05T13:44:18.621Z,1008.26
2022-10-05T13:47:18.626Z,1008.23
2022-10-05T13:50:18.623Z,1008.18
2022-10-05T13:53:18.639Z,1008.15
2022-10-05T13:56:18.627Z,1008.16
2022-10-05T13:59:18.627Z,1008.16
2022-10-05T14:02:18.662Z,1008.2
2022-10-05T14:05:18.622Z,1008.2
2022-10-05T14:08:18.629Z,1008.16
2022-10-05T14:11:18.628Z,1008.19
2022-10-05T14:14:18.635Z,1008.16
2022-10-05T14:17:18.631Z,1008.09
2022-10-05T14:20:18.634Z,1008.09
2022-10-05T14:23:20.166Z,1008.03
2022-10-05T14:26:18.632Z,1008.03
2022-10-05T14:29:18.633Z,1008.02
2022-10-05T14:32:18.756Z,1007.91
2022-10-05T14:35:18.634Z,1007.89
2022-10-05T14:38:18.652Z,1007.89
2022-10-05T14:41:18.937Z,1007.86
2022-10-05T14:44:18.631Z,1007.83
2022-10-05T14:47:18.635Z,1007.79
2022-10-05T14:50:18.623Z,1007.76
2022-10-05T14:53:18.634Z,1007.73
2022-10-05T14:56:18.640Z,1007.7
2022-10-05T14:59:18.633Z,1007.62
2022-10-05T15:02:18.751Z,1007.66
2022-10-05T15:05:18.652Z,1007.61
2022-10-05T15:08:18.640Z,1007.59
2022-10-05T15:11:18.639Z,1007.56
2022-10-05T15:14:18.638Z,1007.44
2022-10-05T15:17:18.639Z,1007.4
2022-10-05T15:20:18.632Z,1007.37
2022-10-05T15:23:18.645Z,1007.31
2022-10-05T15:26:18.781Z,1007.28
2022-10-05T15:29:18.729Z,1007.27
2022-10-05T15:32:18.641Z,1007.17
2022-10-05T15:35:18.657Z,1007.14
2022-10-05T15:38:18.638Z,1007.1
2022-10-05T15:41:18.635Z,1007.12
2022-10-05T15:44:18.644Z,1007.04
2022-10-05T15:47:18.646Z,1007.06
2022-10-05T15:50:18.636Z,1007.01
2022-10-05T15:53:18.642Z,1006.96
2022-10-05T15:56:18.665Z,1006.96
2022-10-05T15:59:18.643Z,1006.95
2022-10-05T16:02:18.707Z,1006.99
2022-10-05T16:05:18.637Z,1006.94
2022-10-05T16:08:18.633Z,1006.97
2022-10-05T16:11:19.194Z,1007.01
2022-10-05T16:14:18.642Z,1007.02
2022-10-05T16:17:18.637Z,1007.03
2022-10-05T16:20:18.638Z,1007.08
2022-10-05T16:23:18.644Z,1007.05
2022-10-05T16:26:18.638Z,1007.04
2022-10-05T16:29:18.643Z,1007.06
2022-10-05T16:32:18.640Z,1007.07
2022-10-05T16:35:18.642Z,1007.11
2022-10-05T16:38:18.654Z,1007.14
2022-10-05T16:41:18.645Z,1007.19
2022-10-05T16:44:18.646Z,1007.25
2022-10-05T16:47:18.649Z,1007.33
2022-10-05T16:50:18.649Z,1007.29
2022-10-05T16:53:18.646Z,1007.3
2022-10-05T16:56:18.645Z,1007.34
2022-10-05T16:59:18.645Z,1007.32
2022-10-05T17:02:18.725Z,1007.41
2022-10-05T17:05:18.647Z,1007.48
2022-10-05T17:08:18.654Z,1007.44
2022-10-05T17:11:18.651Z,1007.46
2022-10-05T17:14:18.649Z,1007.49
2022-10-05T17:17:18.646Z,1007.52
2022-10-05T17:20:18.652Z,1007.57
2022-10-05T17:23:18.654Z,1007.59
2022-10-05T17:26:18.657Z,1007.65
2022-10-05T17:29:18.648Z,1007.69
2022-10-05T17:32:18.657Z,1007.78
2022-10-05T17:35:19.124Z,1007.85
2022-10-05T17:38:18.653Z,1007.95
2022-10-05T17:41:18.668Z,1007.98
2022-10-05T17:44:18.659Z,1008.03
2022-10-05T17:47:18.659Z,1008.11
2022-10-05T17:50:18.657Z,1008.1
2022-10-05T17:53:18.651Z,1008.17
2022-10-05T17:56:18.653Z,1008.23
2022-10-05T17:59:18.662Z,1008.27
2022-10-05T18:02:18.712Z,1008.32
2022-10-05T18:05:18.660Z,1008.39
2022-10-05T18:08:18.659Z,1008.35
2022-10-05T18:11:18.660Z,1008.4
2022-10-05T18:14:18.672Z,1008.45
2022-10-05T18:17:18.660Z,1008.47
2022-10-05T18:20:18.675Z,1008.52
2022-10-05T18:23:18.667Z,1008.55
2022-10-05T18:26:18.672Z,1008.61
2022-10-05T18:29:18.667Z,1008.62
2022-10-05T18:32:18.661Z,1008.7
2022-10-05T18:35:18.666Z,1008.7
2022-10-05T18:38:18.670Z,1008.69
2022-10-05T18:41:18.673Z,1008.7
2022-10-05T18:44:18.693Z,1008.71
2022-10-05T18:47:18.667Z,1008.74
2022-10-05T18:50:18.684Z,1008.78
2022-10-05T18:53:18.667Z,1008.86
2022-10-05T18:56:18.668Z,1008.9
2022-10-05T18:59:18.670Z,1008.96
2022-10-05T19:02:18.904Z,1008.99
2022-10-05T19:05:42.854Z,1009.03
2022-10-05T19:08:18.666Z,1009.09
2022-10-05T19:11:18.665Z,1009.1
2022-10-05T19:14:18.671Z,1009.12
2022-10-05T19:17:18.667Z,1009.15
2022-10-05T19:20:18.672Z,1009.2
2022-10-05T19:23:18.672Z,1009.27
2022-10-05T19:26:18.675Z,1009.35
2022-10-05T19:29:18.675Z,1009.39
2022-10-05T19:32:18.676Z,1009.45
2022-10-05T19:35:18.677Z,1009.42
2022-10-05T19:41:18.673Z,1009.53
2022-10-05T19:44:18.676Z,1009.53
2022-10-05T19:47:18.676Z,1009.6
2022-10-05T19:50:18.683Z,1009.7
2022-10-05T19:53:18.675Z,1009.75
2022-10-05T19:56:18.680Z,1009.77
2022-10-05T19:59:18.677Z,1009.79
2022-10-05T20:02:18.676Z,1009.78
2022-10-05T20:05:18.679Z,1009.82
2022-10-05T20:08:18.685Z,1009.88
2022-10-05T20:11:18.683Z,1009.9
2022-10-05T20:14:18.673Z,1009.92
2022-10-05T20:17:18.675Z,1009.91
2022-10-05T20:20:18.676Z,1009.95
2022-10-05T20:23:18.691Z,1009.99
2022-10-05T20:26:18.675Z,1010.04
2022-10-05T20:29:18.670Z,1010.09
2022-10-05T20:32:18.696Z,1010.15
2022-10-05T20:35:18.687Z,1010.25
2022-10-05T20:38:18.686Z,1010.3
2022-10-05T20:41:18.685Z,1010.37
2022-10-05T20:44:18.686Z,1010.38
2022-10-05T20:47:18.683Z,1010.46
2022-10-05T20:50:18.684Z,1010.48
2022-10-05T20:53:18.686Z,1010.51
2022-10-05T20:56:18.687Z,1010.52
2022-10-05T20:59:18.689Z,1010.52
2022-10-05T21:02:18.683Z,1010.62
2022-10-05T21:05:18.739Z,1010.65
2022-10-05T21:08:18.685Z,1010.66
2022-10-05T21:11:18.696Z,1010.61
2022-10-05T21:14:18.692Z,1010.6
2022-10-05T21:17:18.685Z,1010.57
2022-10-05T21:20:18.688Z,1010.55
2022-10-05T21:23:18.689Z,1010.58
2022-10-05T21:26:18.696Z,1010.59
2022-10-05T21:29:18.697Z,1010.59
2022-10-05T21:32:18.696Z,1010.62
2022-10-05T21:35:18.695Z,1010.63
2022-10-05T21:38:18.708Z,1010.67
2022-10-05T21:41:18.701Z,1010.75
2022-10-05T21:44:18.696Z,1010.83
2022-10-05T21:47:18.723Z,1010.86
2022-10-05T21:50:18.701Z,1010.85
2022-10-05T21:53:18.704Z,1010.91
2022-10-05T21:56:18.695Z,1010.94
2022-10-05T21:59:18.694Z,1010.99
2022-10-05T22:02:18.704Z,1011.05
2022-10-05T22:05:18.725Z,1011.03
2022-10-05T22:08:18.696Z,1011.06
2022-10-05T22:11:18.703Z,1011.12
2022-10-05T22:14:18.700Z,1011.2
2022-10-05T22:17:18.698Z,1011.21
2022-10-05T22:20:18.713Z,1011.21
2022-10-05T22:23:18.693Z,1011.22
2022-10-05T22:26:18.697Z,1011.21
2022-10-05T22:29:18.699Z,1011.26
2022-10-05T22:32:18.692Z,1011.3
2022-10-05T22:35:18.695Z,1011.29
2022-10-05T22:38:18.702Z,1011.27
2022-10-05T22:41:18.711Z,1011.35
2022-10-05T22:44:18.702Z,1011.4
2022-10-05T22:47:18.695Z,1011.41
2022-10-05T22:50:18.701Z,1011.4
2022-10-05T22:53:18.702Z,1011.37
2022-10-05T22:56:18.704Z,1011.36
2022-10-05T22:59:18.703Z,1011.37
2022-10-05T23:02:18.762Z,1011.4
2022-10-05T23:05:18.707Z,1011.43
2022-10-05T23:08:18.710Z,1011.48
2022-10-05T23:11:18.713Z,1011.41
2022-10-05T23:14:18.707Z,1011.46
2022-10-05T23:17:18.713Z,1011.47
2022-10-05T23:20:18.706Z,1011.49
2022-10-05T23:23:18.711Z,1011.48
2022-10-05T23:26:18.711Z,1011.45
2022-10-05T23:29:18.743Z,1011.53
2022-10-05T23:32:18.711Z,1011.64
2022-10-05T23:35:18.717Z,1011.71
2022-10-05T23:38:18.717Z,1011.74
2022-10-05T23:41:18.713Z,1011.81
2022-10-05T23:44:18.715Z,1011.88
2022-10-05T23:47:18.717Z,1011.89
2022-10-05T23:50:18.724Z,1011.81
2022-10-05T23:53:18.714Z,1011.79
2022-10-05T23:56:18.715Z,1011.83
2022-10-05T23:59:18.717Z,1011.87
